sensor_id;sensor_type;location;lat;lon;timestamp;pressure;altitude;pressure_sealevel;temperature;humidity
35553;BME280;21656;46.054;13.614;2023-02-01T07:16:38;101183.72;;;1.71;100.00
35553;BME280;21656;46.054;13.614;2023-02-01T07:19:03;101182.19;;;1.64;100.00
35553;BME280;21656;46.054;13.614;2023-02-01T07:21:29;101190.13;;;1.66;100.00
35553;BME280;21656;46.054;13.614;2023-02-01T07:23:54;101189.97;;;1.70;100.00
35553;BME280;21656;46.054;13.614;2023-02-01T07:26:20;101186.47;;;1.70;100.00
35553;BME280;21656;46.054;13.614;2023-02-01T07:28:46;101182.72;;;1.76;100.00
35553;BME280;21656;46.054;13.614;2023-02-01T07:31:16;101187.06;;;1.50;100.00
35553;BME280;21656;46.054;13.614;2023-02-01T07:33:44;101179.63;;;1.61;100.00
35553;BME280;21656;46.054;13.614;2023-02-01T07:36:16;101176.97;;;1.61;100.00
35553;BME280;21656;46.054;13.614;2023-02-01T07:38:42;101182.13;;;1.67;100.00
35553;BME280;21656;46.054;13.614;2023-02-01T07:41:08;101180.97;;;1.74;100.00
35553;BME280;21656;46.054;13.614;2023-02-01T07:43:34;101177.31;;;1.79;100.00
35553;BME280;21656;46.054;13.614;2023-02-01T07:46:01;101169.78;;;1.93;100.00
35553;BME280;21656;46.054;13.614;2023-02-01T07:48:26;101163.53;;;1.94;100.00
35553;BME280;21656;46.054;13.614;2023-02-01T07:51:08;101169.63;;;1.98;100.00
35553;BME280;21656;46.054;13.614;2023-02-01T07:53:35;101161.44;;;2.04;100.00
35553;BME280;21656;46.054;13.614;2023-02-01T07:56:02;101167.72;;;2.01;100.00
35553;BME280;21656;46.054;13.614;2023-02-01T07:58:28;101160.34;;;2.09;100.00
35553;BME280;21656;46.054;13.614;2023-02-01T08:00:54;101170.03;;;2.12;100.00
35553;BME280;21656;46.054;13.614;2023-02-01T08:03:38;101160.09;;;2.17;100.00
35553;BME280;21656;46.054;13.614;2023-02-01T08:06:04;101166.19;;;2.21;100.00
35553;BME280;21656;46.054;13.614;2023-02-01T08:08:30;101167.97;;;2.20;100.00
35553;BME280;21656;46.054;13.614;2023-02-01T08:11:03;101159.66;;;2.31;100.00
35553;BME280;21656;46.054;13.614;2023-02-01T08:13:30;101160.78;;;2.24;100.00
35553;BME280;21656;46.054;13.614;2023-02-01T08:16:03;101154.59;;;2.23;100.00
35553;BME280;21656;46.054;13.614;2023-02-01T08:18:29;101151.66;;;2.31;100.00
35553;BME280;21656;46.054;13.614;2023-02-01T08:20:55;101156.59;;;2.42;100.00
35553;BME280;21656;46.054;13.614;2023-02-01T08:23:22;101158.06;;;2.50;100.00
35553;BME280;21656;46.054;13.614;2023-02-01T08:25:48;101152.19;;;2.66;100.00
35553;BME280;21656;46.054;13.614;2023-02-01T08:28:14;101147.75;;;2.66;100.00
35553;BME280;21656;46.054;13.614;2023-02-01T08:30:40;101145.72;;;2.73;100.00
35553;BME280;21656;46.054;13.614;2023-02-01T08:33:08;101157.06;;;2.78;100.00
35553;BME280;21656;46.054;13.614;2023-02-01T08:35:37;101166.25;;;2.94;100.00
35553;BME280;21656;46.054;13.614;2023-02-01T08:38:03;101158.00;;;3.00;99.64
35553;BME280;21656;46.054;13.614;2023-02-01T08:40:28;101158.78;;;3.04;100.00
35553;BME280;21656;46.054;13.614;2023-02-01T08:42:54;101158.66;;;3.07;100.00
35553;BME280;21656;46.054;13.614;2023-02-01T08:45:25;101157.81;;;3.07;99.22
35553;BME280;21656;46.054;13.614;2023-02-01T08:47:52;101166.47;;;3.12;99.54
35553;BME280;21656;46.054;13.614;2023-02-01T08:50:18;101155.47;;;3.21;98.65
35553;BME280;21656;46.054;13.614;2023-02-01T08:52:44;101147.53;;;3.43;97.17
35553;BME280;21656;46.054;13.614;2023-02-01T08:55:10;101149.16;;;3.47;95.89
35553;BME280;21656;46.054;13.614;2023-02-01T08:57:35;101149.38;;;3.41;93.04
35553;BME280;21656;46.054;13.614;2023-02-01T09:00:03;101143.38;;;3.58;93.76
35553;BME280;21656;46.054;13.614;2023-02-01T09:02:28;101143.06;;;3.65;92.65
35553;BME280;21656;46.054;13.614;2023-02-01T09:04:55;101145.25;;;3.78;91.62
35553;BME280;21656;46.054;13.614;2023-02-01T09:07:21;101148.69;;;3.80;89.82
35553;BME280;21656;46.054;13.614;2023-02-01T09:09:47;101150.84;;;3.92;89.91
35553;BME280;21656;46.054;13.614;2023-02-01T09:12:12;101159.66;;;3.94;87.84
35553;BME280;21656;46.054;13.614;2023-02-01T09:14:38;101160.19;;;4.02;88.06
35553;BME280;21656;46.054;13.614;2023-02-01T09:17:03;101160.81;;;4.09;87.96
35553;BME280;21656;46.054;13.614;2023-02-01T09:19:30;101151.22;;;4.05;87.57
35553;BME280;21656;46.054;13.614;2023-02-01T09:21:56;101145.88;;;4.05;87.46
35553;BME280;21656;46.054;13.614;2023-02-01T09:24:21;101155.13;;;4.18;87.53
35553;BME280;21656;46.054;13.614;2023-02-01T09:26:47;101150.00;;;4.34;86.86
35553;BME280;21656;46.054;13.614;2023-02-01T09:29:13;101151.19;;;4.47;83.96
35553;BME280;21656;46.054;13.614;2023-02-01T09:31:39;101142.34;;;4.66;81.90
35553;BME280;21656;46.054;13.614;2023-02-01T09:34:05;101156.81;;;4.81;81.85
35553;BME280;21656;46.054;13.614;2023-02-01T09:36:31;101150.38;;;4.86;81.75
35553;BME280;21656;46.054;13.614;2023-02-01T09:38:57;101151.88;;;5.11;79.83
35553;BME280;21656;46.054;13.614;2023-02-01T09:41:39;101152.56;;;5.35;79.92
35553;BME280;21656;46.054;13.614;2023-02-01T09:44:32;101147.63;;;5.63;79.27
35553;BME280;21656;46.054;13.614;2023-02-01T09:47:02;101139.06;;;5.74;77.82
35553;BME280;21656;46.054;13.614;2023-02-01T09:49:33;101152.31;;;5.77;77.54
35553;BME280;21656;46.054;13.614;2023-02-01T09:52:04;101148.03;;;5.73;76.86
35553;BME280;21656;46.054;13.614;2023-02-01T09:54:44;101138.91;;;5.60;75.31
35553;BME280;21656;46.054;13.614;2023-02-01T09:57:21;101132.19;;;5.51;77.28
35553;BME280;21656;46.054;13.614;2023-02-01T09:59:54;101134.06;;;5.49;76.00
35553;BME280;21656;46.054;13.614;2023-02-01T10:02:26;101138.75;;;5.44;77.25
35553;BME280;21656;46.054;13.614;2023-02-01T10:04:55;101137.53;;;5.51;77.00
35553;BME280;21656;46.054;13.614;2023-02-01T10:13:03;101133.25;;;5.66;76.95
35553;BME280;21656;46.054;13.614;2023-02-01T10:15:52;101141.38;;;5.82;77.80
35553;BME280;21656;46.054;13.614;2023-02-01T10:18:33;101137.69;;;5.84;76.49
35553;BME280;21656;46.054;13.614;2023-02-01T10:24:11;101118.69;;;5.91;74.64
35553;BME280;21656;46.054;13.614;2023-02-01T10:26:45;101124.09;;;5.89;75.50
35553;BME280;21656;46.054;13.614;2023-02-01T10:29:19;101114.56;;;5.83;74.33
35553;BME280;21656;46.054;13.614;2023-02-01T10:31:45;101116.00;;;5.91;74.65
35553;BME280;21656;46.054;13.614;2023-02-01T10:41:07;101113.56;;;6.56;72.59
35553;BME280;21656;46.054;13.614;2023-02-01T10:43:37;101097.78;;;6.51;71.05
35553;BME280;21656;46.054;13.614;2023-02-01T10:46:04;101089.34;;;6.59;71.18
35553;BME280;21656;46.054;13.614;2023-02-01T10:48:31;101106.13;;;6.78;71.61
35553;BME280;21656;46.054;13.614;2023-02-01T10:51:06;101090.44;;;6.88;70.49
35553;BME280;21656;46.054;13.614;2023-02-01T10:56:25;101082.50;;;6.86;70.84
35553;BME280;21656;46.054;13.614;2023-02-01T10:58:50;101084.84;;;6.92;70.20
35553;BME280;21656;46.054;13.614;2023-02-01T11:01:30;101073.19;;;7.09;70.91
35553;BME280;21656;46.054;13.614;2023-02-01T11:04:04;101062.13;;;7.15;69.70
35553;BME280;21656;46.054;13.614;2023-02-01T11:09:00;101058.22;;;7.21;69.55
35553;BME280;21656;46.054;13.614;2023-02-01T11:11:26;101056.16;;;7.26;68.21
35553;BME280;21656;46.054;13.614;2023-02-01T11:14:14;101062.56;;;7.40;68.58
35553;BME280;21656;46.054;13.614;2023-02-01T11:16:47;101051.66;;;7.43;68.71
35553;BME280;21656;46.054;13.614;2023-02-01T11:19:14;101047.13;;;7.59;67.29
35553;BME280;21656;46.054;13.614;2023-02-01T11:21:41;101037.84;;;7.34;67.50
35553;BME280;21656;46.054;13.614;2023-02-01T11:24:23;101035.75;;;7.55;68.32
35553;BME280;21656;46.054;13.614;2023-02-01T11:26:50;101052.75;;;7.70;67.35
35553;BME280;21656;46.054;13.614;2023-02-01T11:29:18;101047.31;;;7.56;67.49
35553;BME280;21656;46.054;13.614;2023-02-01T11:31:47;101040.00;;;7.44;67.48
35553;BME280;21656;46.054;13.614;2023-02-01T11:34:16;101045.88;;;7.34;67.78
35553;BME280;21656;46.054;13.614;2023-02-01T11:36:45;101041.28;;;7.52;67.35
35553;BME280;21656;46.054;13.614;2023-02-01T11:39:30;101018.88;;;7.84;66.49
35553;BME280;21656;46.054;13.614;2023-02-01T11:42:14;101001.94;;;7.97;66.43
35553;BME280;21656;46.054;13.614;2023-02-01T11:44:42;101004.09;;;8.07;66.41
35553;BME280;21656;46.054;13.614;2023-02-01T11:50:01;100988.91;;;8.64;66.01
35553;BME280;21656;46.054;13.614;2023-02-01T12:01:30;100971.38;;;8.44;65.41
35553;BME280;21656;46.054;13.614;2023-02-01T12:06:48;100945.34;;;9.15;63.22
35553;BME280;21656;46.054;13.614;2023-02-01T12:09:32;100944.84;;;9.75;61.44
35553;BME280;21656;46.054;13.614;2023-02-01T12:22:38;100902.88;;;9.86;61.64
35553;BME280;21656;46.054;13.614;2023-02-01T12:38:44;100892.72;;;11.25;56.60
35553;BME280;21656;46.054;13.614;2023-02-01T12:41:39;100886.28;;;10.80;57.19
35553;BME280;21656;46.054;13.614;2023-02-01T12:44:12;100878.97;;;10.93;58.44
35553;BME280;21656;46.054;13.614;2023-02-01T12:47:03;100875.88;;;11.11;58.92
35553;BME280;21656;46.054;13.614;2023-02-01T12:49:55;100877.91;;;11.31;58.26
35553;BME280;21656;46.054;13.614;2023-02-01T13:00:44;100861.31;;;11.13;58.80
35553;BME280;21656;46.054;13.614;2023-02-01T13:03:20;100867.84;;;11.22;59.47
35553;BME280;21656;46.054;13.614;2023-02-01T13:05:51;100870.94;;;11.28;60.14
35553;BME280;21656;46.054;13.614;2023-02-01T13:11:20;100866.28;;;11.31;59.53
35553;BME280;21656;46.054;13.614;2023-02-01T13:16:40;100849.97;;;11.90;60.40
35553;BME280;21656;46.054;13.614;2023-02-01T13:21:42;100852.63;;;12.69;58.63
35553;BME280;21656;46.054;13.614;2023-02-01T13:24:48;100856.91;;;13.15;57.19
35553;BME280;21656;46.054;13.614;2023-02-01T13:27:17;100868.16;;;12.88;57.15
35553;BME280;21656;46.054;13.614;2023-02-01T13:32:31;100864.50;;;12.00;59.54
35553;BME280;21656;46.054;13.614;2023-02-01T13:42:56;100838.97;;;12.04;62.60
35553;BME280;21656;46.054;13.614;2023-02-01T13:45:33;100838.34;;;12.23;63.04
35553;BME280;21656;46.054;13.614;2023-02-01T13:48:02;100831.44;;;12.42;62.52
35553;BME280;21656;46.054;13.614;2023-02-01T13:50:38;100828.63;;;12.32;62.64
35553;BME280;21656;46.054;13.614;2023-02-01T13:55:54;100828.03;;;12.17;63.78
35553;BME280;21656;46.054;13.614;2023-02-01T13:58:37;100827.41;;;12.02;64.31
35553;BME280;21656;46.054;13.614;2023-02-01T14:01:32;100816.00;;;11.65;66.14
35553;BME280;21656;46.054;13.614;2023-02-01T14:04:01;100823.91;;;11.44;67.79
35553;BME280;21656;46.054;13.614;2023-02-01T14:11:35;100825.50;;;11.00;71.20
35553;BME280;21656;46.054;13.614;2023-02-01T14:19:32;100837.16;;;10.76;75.14
35553;BME280;21656;46.054;13.614;2023-02-01T14:22:00;100828.44;;;10.73;76.03
35553;BME280;21656;46.054;13.614;2023-02-01T14:24:31;100831.50;;;10.55;75.52
35553;BME280;21656;46.054;13.614;2023-02-01T14:26:59;100825.22;;;10.44;76.79
35553;BME280;21656;46.054;13.614;2023-02-01T14:29:37;100819.75;;;10.32;78.08
35553;BME280;21656;46.054;13.614;2023-02-01T14:32:11;100816.72;;;10.24;77.75
35553;BME280;21656;46.054;13.614;2023-02-01T14:39:53;100825.72;;;9.86;82.87
35553;BME280;21656;46.054;13.614;2023-02-01T14:47:51;100829.50;;;9.71;83.26
35553;BME280;21656;46.054;13.614;2023-02-01T14:52:58;100841.56;;;9.65;86.49
35553;BME280;21656;46.054;13.614;2023-02-01T14:56:17;100839.50;;;9.56;86.17
35553;BME280;21656;46.054;13.614;2023-02-01T15:01:24;100832.72;;;9.38;88.64
35553;BME280;21656;46.054;13.614;2023-02-01T15:04:11;100837.66;;;9.31;90.11
35553;BME280;21656;46.054;13.614;2023-02-01T15:06:40;100830.78;;;9.14;91.75
35553;BME280;21656;46.054;13.614;2023-02-01T15:09:16;100841.16;;;9.06;93.45
35553;BME280;21656;46.054;13.614;2023-02-01T15:12:14;100845.13;;;8.73;96.16
35553;BME280;21656;46.054;13.614;2023-02-01T15:14:44;100840.22;;;8.53;99.12
35553;BME280;21656;46.054;13.614;2023-02-01T15:17:19;100843.22;;;8.34;100.00
35553;BME280;21656;46.054;13.614;2023-02-01T15:19:58;100839.69;;;8.19;100.00
35553;BME280;21656;46.054;13.614;2023-02-01T15:22:25;100839.25;;;7.98;100.00
35553;BME280;21656;46.054;13.614;2023-02-01T15:24:56;100841.50;;;7.90;100.00
35553;BME280;21656;46.054;13.614;2023-02-01T15:27:22;100851.78;;;7.83;100.00
35553;BME280;21656;46.054;13.614;2023-02-01T15:29:48;100859.25;;;7.78;100.00
35553;BME280;21656;46.054;13.614;2023-02-01T15:32:34;100857.59;;;7.61;100.00
35553;BME280;21656;46.054;13.614;2023-02-01T15:35:00;100858.16;;;7.52;100.00
35553;BME280;21656;46.054;13.614;2023-02-01T15:37:27;100863.03;;;7.45;100.00
35553;BME280;21656;46.054;13.614;2023-02-01T15:40:19;100865.47;;;7.20;100.00
35553;BME280;21656;46.054;13.614;2023-02-01T15:42:58;100867.72;;;7.11;100.00
35553;BME280;21656;46.054;13.614;2023-02-01T15:45:29;100867.69;;;6.97;100.00
35553;BME280;21656;46.054;13.614;2023-02-01T15:47:58;100860.72;;;6.79;100.00
35553;BME280;21656;46.054;13.614;2023-02-01T15:50:24;100860.28;;;6.70;100.00
35553;BME280;21656;46.054;13.614;2023-02-01T15:52:52;100874.88;;;6.65;100.00
35553;BME280;21656;46.054;13.614;2023-02-01T15:55:36;100877.94;;;6.59;100.00
35553;BME280;21656;46.054;13.614;2023-02-01T15:58:15;100881.28;;;6.46;100.00
35553;BME280;21656;46.054;13.614;2023-02-01T16:00:47;100894.25;;;6.38;100.00
35553;BME280;21656;46.054;13.614;2023-02-01T16:05:59;100893.09;;;6.26;100.00
35553;BME280;21656;46.054;13.614;2023-02-01T16:08:27;100890.84;;;6.19;100.00
35553;BME280;21656;46.054;13.614;2023-02-01T16:13:38;100895.63;;;5.96;100.00
35553;BME280;21656;46.054;13.614;2023-02-01T16:16:03;100901.19;;;5.92;100.00
35553;BME280;21656;46.054;13.614;2023-02-01T16:18:32;100908.22;;;5.94;100.00
35553;BME280;21656;46.054;13.614;2023-02-01T16:20:58;100909.34;;;5.73;100.00
35553;BME280;21656;46.054;13.614;2023-02-01T16:23:23;100904.53;;;5.62;100.00
35553;BME280;21656;46.054;13.614;2023-02-01T16:25:48;100910.59;;;5.65;100.00
35553;BME280;21656;46.054;13.614;2023-02-01T16:28:14;100919.25;;;5.53;100.00
35553;BME280;21656;46.054;13.614;2023-02-01T16:30:39;100911.69;;;5.44;100.00
35553;BME280;21656;46.054;13.614;2023-02-01T16:33:05;100912.19;;;5.35;100.00
35553;BME280;21656;46.054;13.614;2023-02-01T16:35:36;100908.78;;;5.31;100.00
35553;BME280;21656;46.054;13.614;2023-02-01T16:38:09;100904.56;;;5.27;100.00
35553;BME280;21656;46.054;13.614;2023-02-01T16:40:38;100905.34;;;5.29;100.00
35553;BME280;21656;46.054;13.614;2023-02-01T16:43:21;100905.72;;;5.21;100.00
35553;BME280;21656;46.054;13.614;2023-02-01T16:45:48;100909.94;;;5.08;100.00
35553;BME280;21656;46.054;13.614;2023-02-01T16:48:24;100914.66;;;5.03;100.00
35553;BME280;21656;46.054;13.614;2023-02-01T16:50:56;100924.44;;;4.85;100.00
35553;BME280;21656;46.054;13.614;2023-02-01T16:53:23;100923.38;;;4.70;100.00
35553;BME280;21656;46.054;13.614;2023-02-01T16:55:49;100915.88;;;4.60;100.00
35553;BME280;21656;46.054;13.614;2023-02-01T16:58:16;100929.16;;;4.61;100.00
35553;BME280;21656;46.054;13.614;2023-02-01T17:00:42;100933.59;;;4.61;100.00
35553;BME280;21656;46.054;13.614;2023-02-01T17:03:10;100925.59;;;4.61;100.00
35553;BME280;21656;46.054;13.614;2023-02-01T17:05:36;100929.28;;;4.58;100.00
35553;BME280;21656;46.054;13.614;2023-02-01T17:08:05;100933.06;;;4.54;100.00
35553;BME280;21656;46.054;13.614;2023-02-01T17:10:31;100928.84;;;4.29;100.00
35553;BME280;21656;46.054;13.614;2023-02-01T17:12:57;100934.34;;;4.26;100.00
35553;BME280;21656;46.054;13.614;2023-02-01T17:15:25;100931.78;;;4.04;100.00
35553;BME280;21656;46.054;13.614;2023-02-01T17:17:52;100934.88;;;3.95;100.00
35553;BME280;21656;46.054;13.614;2023-02-01T17:20:22;100937.22;;;3.82;100.00
35553;BME280;21656;46.054;13.614;2023-02-01T17:22:49;100949.25;;;3.91;100.00
35553;BME280;21656;46.054;13.614;2023-02-01T17:25:17;100964.91;;;3.99;100.00
35553;BME280;21656;46.054;13.614;2023-02-01T17:27:43;100958.13;;;3.91;100.00
35553;BME280;21656;46.054;13.614;2023-02-01T17:30:10;100965.72;;;4.01;100.00
35553;BME280;21656;46.054;13.614;2023-02-01T17:32:36;100970.59;;;3.91;100.00
35553;BME280;21656;46.054;13.614;2023-02-01T17:35:02;100963.78;;;3.84;100.00
35553;BME280;21656;46.054;13.614;2023-02-01T17:37:31;100961.19;;;3.62;100.00
35553;BME280;21656;46.054;13.614;2023-02-01T17:39:57;100951.53;;;3.59;100.00
35553;BME280;21656;46.054;13.614;2023-02-01T17:42:24;100960.13;;;3.66;100.00
35553;BME280;21656;46.054;13.614;2023-02-01T17:44:54;100955.81;;;3.63;100.00
35553;BME280;21656;46.054;13.614;2023-02-01T17:47:20;100945.63;;;3.73;100.00
35553;BME280;21656;46.054;13.614;2023-02-01T17:49:45;100949.41;;;3.47;100.00
35553;BME280;21656;46.054;13.614;2023-02-01T17:52:16;100954.84;;;3.44;100.00
35553;BME280;21656;46.054;13.614;2023-02-01T17:54:42;100947.09;;;3.39;100.00
35553;BME280;21656;46.054;13.614;2023-02-01T17:57:11;100945.84;;;3.26;100.00
35553;BME280;21656;46.054;13.614;2023-02-01T17:59:36;100954.09;;;3.20;100.00
35553;BME280;21656;46.054;13.614;2023-02-01T18:02:02;100966.56;;;3.19;100.00
35553;BME280;21656;46.054;13.614;2023-02-01T18:04:27;100964.66;;;3.21;100.00
35553;BME280;21656;46.054;13.614;2023-02-01T18:06:53;100962.09;;;3.20;100.00
35553;BME280;21656;46.054;13.614;2023-02-01T18:09:18;100965.56;;;3.22;100.00
35553;BME280;21656;46.054;13.614;2023-02-01T18:11:44;100974.53;;;2.97;100.00
35553;BME280;21656;46.054;13.614;2023-02-01T18:14:11;100980.16;;;2.90;100.00
35553;BME280;21656;46.054;13.614;2023-02-01T18:16:39;100975.47;;;2.96;100.00
35553;BME280;21656;46.054;13.614;2023-02-01T18:19:05;100966.69;;;2.94;100.00
35553;BME280;21656;46.054;13.614;2023-02-01T18:21:33;100967.09;;;2.83;100.00
35553;BME280;21656;46.054;13.614;2023-02-01T18:24:00;100975.06;;;2.62;100.00
35553;BME280;21656;46.054;13.614;2023-02-01T18:26:26;100982.56;;;2.74;100.00
35553;BME280;21656;46.054;13.614;2023-02-01T18:28:51;100976.34;;;2.73;100.00
35553;BME280;21656;46.054;13.614;2023-02-01T18:31:24;100992.00;;;2.81;100.00
35553;BME280;21656;46.054;13.614;2023-02-01T18:33:50;100997.13;;;2.87;100.00
35553;BME280;21656;46.054;13.614;2023-02-01T18:36:16;101005.09;;;2.87;100.00
35553;BME280;21656;46.054;13.614;2023-02-01T18:38:42;101002.56;;;2.84;100.00
35553;BME280;21656;46.054;13.614;2023-02-01T18:41:12;100997.78;;;2.92;100.00
35553;BME280;21656;46.054;13.614;2023-02-01T18:43:39;101004.16;;;2.88;100.00
35553;BME280;21656;46.054;13.614;2023-02-01T18:46:05;101005.53;;;2.98;100.00
35553;BME280;21656;46.054;13.614;2023-02-01T18:48:31;101002.13;;;2.95;100.00
35553;BME280;21656;46.054;13.614;2023-02-01T18:50:57;101013.59;;;2.97;100.00
35553;BME280;21656;46.054;13.614;2023-02-01T18:53:23;101017.84;;;3.01;100.00
35553;BME280;21656;46.054;13.614;2023-02-01T18:55:52;101014.13;;;3.05;100.00
35553;BME280;21656;46.054;13.614;2023-02-01T18:58:18;101010.50;;;3.08;100.00
35553;BME280;21656;46.054;13.614;2023-02-01T19:00:44;101009.06;;;2.99;100.00
35553;BME280;21656;46.054;13.614;2023-02-01T19:03:14;101000.88;;;3.03;100.00
35553;BME280;21656;46.054;13.614;2023-02-01T19:05:40;101018.34;;;3.11;100.00
35553;BME280;21656;46.054;13.614;2023-02-01T19:08:06;101000.06;;;3.23;100.00
35553;BME280;21656;46.054;13.614;2023-02-01T19:10:32;101008.50;;;3.35;100.00
35553;BME280;21656;46.054;13.614;2023-02-01T19:12:58;101016.53;;;3.33;100.00
35553;BME280;21656;46.054;13.614;2023-02-01T19:15:24;101019.84;;;3.40;100.00
35553;BME280;21656;46.054;13.614;2023-02-01T19:17:51;101012.44;;;3.46;100.00
35553;BME280;21656;46.054;13.614;2023-02-01T19:20:22;101009.06;;;3.43;100.00
35553;BME280;21656;46.054;13.614;2023-02-01T19:22:48;101015.25;;;3.43;100.00
35553;BME280;21656;46.054;13.614;2023-02-01T19:25:17;101018.66;;;3.47;100.00
35553;BME280;21656;46.054;13.614;2023-02-01T19:27:43;101017.53;;;3.53;100.00
35553;BME280;21656;46.054;13.614;2023-02-01T19:30:10;101010.06;;;3.61;100.00
35553;BME280;21656;46.054;13.614;2023-02-01T19:32:36;101020.53;;;3.65;100.00
35553;BME280;21656;46.054;13.614;2023-02-01T19:35:01;101021.25;;;3.69;100.00
35553;BME280;21656;46.054;13.614;2023-02-01T19:37:27;101022.25;;;3.66;100.00
35553;BME280;21656;46.054;13.614;2023-02-01T19:39:52;101023.53;;;3.58;100.00
35553;BME280;21656;46.054;13.614;2023-02-01T19:42:18;101020.09;;;3.54;100.00
35553;BME280;21656;46.054;13.614;2023-02-01T19:44:43;101012.00;;;3.57;100.00
35553;BME280;21656;46.054;13.614;2023-02-01T19:47:09;101022.44;;;3.62;100.00
35553;BME280;21656;46.054;13.614;2023-02-01T19:49:35;101027.41;;;3.71;100.00
35553;BME280;21656;46.054;13.614;2023-02-01T19:52:00;101029.06;;;3.74;100.00
35553;BME280;21656;46.054;13.614;2023-02-01T19:54:26;101034.06;;;3.81;100.00
35553;BME280;21656;46.054;13.614;2023-02-01T19:56:51;101038.47;;;3.82;100.00
35553;BME280;21656;46.054;13.614;2023-02-01T19:59:17;101037.34;;;3.88;100.00
35553;BME280;21656;46.054;13.614;2023-02-01T20:01:43;101023.94;;;3.89;100.00
35553;BME280;21656;46.054;13.614;2023-02-01T20:04:12;101028.88;;;3.99;100.00
35553;BME280;21656;46.054;13.614;2023-02-01T20:06:40;101030.75;;;3.97;100.00
35553;BME280;21656;46.054;13.614;2023-02-01T20:09:05;101043.00;;;3.80;100.00
35553;BME280;21656;46.054;13.614;2023-02-01T20:11:31;101030.53;;;3.81;100.00
35553;BME280;21656;46.054;13.614;2023-02-01T20:13:57;101018.94;;;3.82;100.00
35553;BME280;21656;46.054;13.614;2023-02-01T20:16:26;101021.41;;;3.86;100.00
35553;BME280;21656;46.054;13.614;2023-02-01T20:18:51;101021.16;;;3.93;100.00
35553;BME280;21656;46.054;13.614;2023-02-01T20:21:16;101023.69;;;3.96;100.00
35553;BME280;21656;46.054;13.614;2023-02-01T20:23:43;101019.41;;;3.91;100.00
35553;BME280;21656;46.054;13.614;2023-02-01T20:26:12;101026.16;;;4.00;100.00
35553;BME280;21656;46.054;13.614;2023-02-01T20:28:38;101028.25;;;3.92;100.00
35553;BME280;21656;46.054;13.614;2023-02-01T20:31:05;101027.06;;;3.99;100.00
35553;BME280;21656;46.054;13.614;2023-02-01T20:33:31;101035.06;;;3.99;100.00
35553;BME280;21656;46.054;13.614;2023-02-01T20:35:57;101035.34;;;3.93;100.00
35553;BME280;21656;46.054;13.614;2023-02-01T20:38:23;101042.34;;;3.96;100.00
35553;BME280;21656;46.054;13.614;2023-02-01T20:40:48;101048.34;;;4.01;100.00
35553;BME280;21656;46.054;13.614;2023-02-01T20:43:14;101042.94;;;4.02;100.00
35553;BME280;21656;46.054;13.614;2023-02-01T20:45:41;101050.81;;;4.05;100.00
35553;BME280;21656;46.054;13.614;2023-02-01T20:48:07;101041.25;;;4.00;100.00
35553;BME280;21656;46.054;13.614;2023-02-01T20:50:33;101047.34;;;4.03;100.00
35553;BME280;21656;46.054;13.614;2023-02-01T20:53:00;101041.81;;;4.08;100.00
35553;BME280;21656;46.054;13.614;2023-02-01T20:55:26;101038.41;;;4.04;100.00
35553;BME280;21656;46.054;13.614;2023-02-01T20:57:52;101036.72;;;4.02;100.00
35553;BME280;21656;46.054;13.614;2023-02-01T21:00:21;101036.94;;;3.97;100.00
35553;BME280;21656;46.054;13.614;2023-02-01T21:02:48;101043.00;;;4.01;100.00
35553;BME280;21656;46.054;13.614;2023-02-01T21:05:14;101034.22;;;3.99;100.00
35553;BME280;21656;46.054;13.614;2023-02-01T21:07:40;101035.72;;;4.04;100.00
35553;BME280;21656;46.054;13.614;2023-02-01T21:10:09;101037.50;;;4.05;100.00
35553;BME280;21656;46.054;13.614;2023-02-01T21:12:36;101040.94;;;4.07;100.00
35553;BME280;21656;46.054;13.614;2023-02-01T21:15:03;101042.81;;;4.05;100.00
35553;BME280;21656;46.054;13.614;2023-02-01T21:17:30;101047.16;;;4.08;100.00
35553;BME280;21656;46.054;13.614;2023-02-01T21:19:56;101038.00;;;4.13;100.00
35553;BME280;21656;46.054;13.614;2023-02-01T21:22:22;101031.94;;;4.10;100.00
35553;BME280;21656;46.054;13.614;2023-02-01T21:24:47;101035.16;;;4.18;100.00
35553;BME280;21656;46.054;13.614;2023-02-01T21:27:13;101031.88;;;4.11;100.00
35553;BME280;21656;46.054;13.614;2023-02-01T21:29:39;101024.59;;;4.15;100.00
35553;BME280;21656;46.054;13.614;2023-02-01T21:32:06;101016.69;;;4.13;100.00
35553;BME280;21656;46.054;13.614;2023-02-01T21:34:32;101034.00;;;4.24;100.00
35553;BME280;21656;46.054;13.614;2023-02-01T21:36:58;101034.59;;;4.10;100.00
35553;BME280;21656;46.054;13.614;2023-02-01T21:39:24;101031.75;;;3.94;100.00
35553;BME280;21656;46.054;13.614;2023-02-01T21:41:51;101033.59;;;3.92;100.00
35553;BME280;21656;46.054;13.614;2023-02-01T21:44:35;101034.41;;;3.94;100.00
35553;BME280;21656;46.054;13.614;2023-02-01T21:47:01;101038.59;;;4.00;100.00
35553;BME280;21656;46.054;13.614;2023-02-01T21:49:26;101035.88;;;4.01;100.00
35553;BME280;21656;46.054;13.614;2023-02-01T21:51:53;101045.53;;;4.04;100.00
35553;BME280;21656;46.054;13.614;2023-02-01T21:54:19;101044.59;;;4.05;100.00
35553;BME280;21656;46.054;13.614;2023-02-01T21:56:44;101044.69;;;4.03;100.00
35553;BME280;21656;46.054;13.614;2023-02-01T21:59:10;101051.72;;;4.04;100.00
35553;BME280;21656;46.054;13.614;2023-02-01T22:01:37;101049.88;;;4.06;100.00
35553;BME280;21656;46.054;13.614;2023-02-01T22:04:03;101043.00;;;4.01;100.00
35553;BME280;21656;46.054;13.614;2023-02-01T22:06:32;101044.69;;;4.03;100.00
35553;BME280;21656;46.054;13.614;2023-02-01T22:08:58;101038.53;;;4.01;100.00
35553;BME280;21656;46.054;13.614;2023-02-01T22:11:24;101055.25;;;4.05;100.00